createdAt,value
2017-03-18T00:08:05.269Z,7
2017-03-18T00:18:05.313Z,7
2017-03-18T00:28:05.290Z,7
2017-03-18T00:38:05.335Z,9
2017-03-18T00:48:05.300Z,8
2017-03-18T00:58:05.337Z,9
2017-03-18T01:08:05.319Z,14
2017-03-18T01:18:05.273Z,15
2017-03-18T01:28:05.360Z,18
2017-03-18T01:38:05.276Z,18
2017-03-18T01:48:05.335Z,18
2017-03-18T01:58:05.342Z,17
2017-03-18T02:08:05.434Z,22
2017-03-18T02:18:05.333Z,12
2017-03-18T02:28:05.385Z,12
2017-03-18T02:38:05.401Z,11
2017-03-18T02:48:05.429Z,7
2017-03-18T02:58:05.394Z,6
2017-03-18T03:08:05.425Z,6
2017-03-18T03:18:05.414Z,5
2017-03-18T03:28:05.376Z,6
2017-03-18T03:38:05.452Z,6
2017-03-18T03:48:05.395Z,6
2017-03-18T03:58:05.511Z,5
2017-03-18T04:08:05.435Z,6
2017-03-18T04:18:05.494Z,5
2017-03-18T04:28:05.451Z,5
2017-03-18T04:38:05.623Z,4
2017-03-18T04:48:05.644Z,3
2017-03-18T04:58:05.521Z,3
2017-03-18T05:08:05.470Z,3
2017-03-18T05:18:05.555Z,3
2017-03-18T05:28:05.467Z,4
2017-03-18T05:38:05.622Z,4
2017-03-18T05:48:05.533Z,4
2017-03-18T05:58:05.638Z,5
2017-03-18T06:08:05.528Z,9
2017-03-18T06:18:05.699Z,6
2017-03-18T06:28:05.576Z,6
2017-03-18T06:38:05.675Z,5
2017-03-18T06:48:05.956Z,7
2017-03-18T06:58:05.619Z,7
2017-03-18T07:08:05.638Z,5
2017-03-18T07:18:05.644Z,5
2017-03-18T07:28:06.252Z,6
2017-03-18T07:38:05.692Z,4
2017-03-18T07:48:05.649Z,3
2017-03-18T07:58:05.701Z,3
2017-03-18T08:08:05.686Z,7
2017-03-18T08:18:05.758Z,4
2017-03-18T08:28:05.705Z,4
2017-03-18T08:38:05.678Z,5
2017-03-18T08:48:05.649Z,4
2017-03-18T08:58:05.721Z,2
2017-03-18T09:08:05.707Z,2
2017-03-18T09:18:05.690Z,3
2017-03-18T09:28:05.758Z,5
2017-03-18T09:38:05.737Z,6
2017-03-18T09:48:05.794Z,5
2017-03-18T09:58:05.780Z,1
2017-03-18T10:08:05.824Z,1
2017-03-18T10:18:05.793Z,3
2017-03-18T10:28:06.105Z,1
2017-03-18T10:38:05.820Z,2
2017-03-18T10:48:05.885Z,2
2017-03-18T10:58:05.792Z,2
2017-03-18T11:08:06.041Z,1
2017-03-18T11:18:05.847Z,1
2017-03-18T11:28:06.566Z,3
2017-03-18T11:38:05.836Z,2
2017-03-18T11:48:05.913Z,2
2017-03-18T11:58:05.903Z,3
2017-03-18T12:08:05.882Z,3
2017-03-18T12:18:05.862Z,5
2017-03-18T12:28:05.880Z,2
2017-03-18T12:38:05.916Z,2
2017-03-18T12:48:06.503Z,3
2017-03-18T12:58:05.929Z,3
2017-03-18T13:08:06.040Z,2
2017-03-18T13:18:05.910Z,5
2017-03-18T13:28:05.930Z,3
2017-03-18T13:38:05.946Z,2
2017-03-18T13:48:05.964Z,2
2017-03-18T13:58:05.952Z,5
2017-03-18T14:08:05.976Z,5
2017-03-18T14:18:06.778Z,4
2017-03-18T14:28:06.000Z,6
2017-03-18T14:38:05.971Z,3
2017-03-18T14:48:05.992Z,3
2017-03-18T14:58:06.014Z,4
2017-03-18T15:08:06.046Z,2
2017-03-18T15:18:06.003Z,1
2017-03-18T15:28:06.025Z,2
2017-03-18T15:38:06.057Z,3
2017-03-18T15:48:06.033Z,4
2017-03-18T15:58:06.064Z,3
2017-03-18T16:08:06.146Z,5
2017-03-18T16:18:06.142Z,2
2017-03-18T16:28:06.222Z,4
2017-03-18T16:38:06.099Z,6
2017-03-18T16:48:06.836Z,5
2017-03-18T16:58:06.179Z,3
2017-03-18T17:08:06.177Z,4
2017-03-18T17:18:06.267Z,4
2017-03-18T17:28:06.328Z,2
2017-03-18T17:38:06.244Z,4
2017-03-18T17:48:06.171Z,4
2017-03-18T17:58:06.224Z,5
2017-03-18T18:08:06.289Z,4
2017-03-18T18:18:06.228Z,4
2017-03-18T18:28:06.334Z,6
2017-03-18T18:38:07.295Z,3
2017-03-18T18:48:06.235Z,3
2017-03-18T18:58:06.306Z,3
2017-03-18T19:08:06.270Z,5
2017-03-18T19:18:06.322Z,5
2017-03-18T19:28:14.093Z,4
2017-03-18T19:38:06.574Z,5
2017-03-18T19:48:06.596Z,9
2017-03-18T19:58:06.502Z,5
2017-03-18T20:08:06.367Z,7
2017-03-18T20:18:06.375Z,8
2017-03-18T20:28:06.469Z,5
2017-03-18T20:38:06.773Z,5
2017-03-18T20:48:06.562Z,6
2017-03-18T20:58:06.491Z,6
2017-03-18T21:08:06.501Z,5
2017-03-18T21:18:06.484Z,11
2017-03-18T21:28:06.448Z,8
2017-03-18T21:38:06.467Z,6
2017-03-18T21:48:06.734Z,8
2017-03-18T21:58:06.492Z,7
2017-03-18T22:08:06.436Z,7
2017-03-18T22:18:06.497Z,10
2017-03-18T22:28:06.461Z,10
2017-03-18T22:38:06.576Z,12
2017-03-18T22:48:06.445Z,12
2017-03-18T22:58:06.526Z,11
2017-03-18T23:08:06.516Z,11
2017-03-18T23:18:06.516Z,11
2017-03-18T23:28:06.511Z,10
2017-03-18T23:38:06.483Z,10
2017-03-18T23:48:06.541Z,14
2017-03-18T23:58:06.580Z,12
